Time;durP1;ratioP1;P1;durP2;ratioP2;P2;SDS_P1;SDS_P2;PMS_P1;PMS_P2;Temp;Humidity;BMP_temperature;BMP_pressure;BME280_temperature;BME280_humidity;BME280_pressure;Samples;Min_cycle;Max_cycle;Signal;HPM_P1;HPM_P2
2022/09/29 00:01:44;;;;;;;9.20;1.20;;;;;;;;;;5034441;28;20032;-65
2022/09/29 00:04:13;;;;;;;7.20;1.15;;;;;;;;;;5034438;28;20025;-65
2022/09/29 00:06:39;;;;;;;4.38;1.10;;;;;;;;;;5034570;28;20030;-65
2022/09/29 00:09:05;;;;;;;9.18;1.52;;;;;;;;;;5033730;28;20045;-65
2022/09/29 00:11:31;;;;;;;7.10;1.00;;;;;;;;;;5034125;28;20038;-65
2022/09/29 00:13:57;;;;;;;5.00;1.35;;;;;;;;;;5034531;28;20030;-65
2022/09/29 00:16:23;;;;;;;5.18;1.25;;;;;;;;;;5034201;28;20025;-65
2022/09/29 00:18:49;;;;;;;5.80;1.10;;;;;;;;;;5033762;28;20071;-65
2022/09/29 00:21:20;;;;;;;9.63;1.27;;;;;;;;;;5033954;28;20030;-66
2022/09/29 00:23:46;;;;;;;17.02;1.60;;;;;;;;;;5034368;28;20037;-66
2022/09/29 00:26:17;;;;;;;7.55;1.13;;;;;;;;;;5033899;28;20079;-66
2022/09/29 00:28:47;;;;;;;6.90;0.95;;;;;;;;;;5034413;28;20068;-66
2022/09/29 00:31:14;;;;;;;14.20;1.42;;;;;;;;;;5033926;28;20130;-66
2022/09/29 00:33:40;;;;;;;7.70;1.42;;;;;;;;;;5033998;28;20096;-66
2022/09/29 00:36:07;;;;;;;9.10;1.10;;;;;;;;;;5034006;28;20021;-66
2022/09/29 00:38:34;;;;;;;10.45;1.25;;;;;;;;;;5033831;28;20030;-65
2022/09/29 00:41:00;;;;;;;9.80;2.28;;;;;;;;;;5033134;28;20076;-65
2022/09/29 00:43:44;;;;;;;6.88;1.10;;;;;;;;;;5033804;28;20084;-65
2022/09/29 00:46:12;;;;;;;7.82;1.75;;;;;;;;;;5033437;28;20500;-65
2022/09/29 00:48:38;;;;;;;6.72;1.25;;;;;;;;;;5033878;28;20497;-66
2022/09/29 00:51:04;;;;;;;10.27;1.42;;;;;;;;;;5033686;28;20021;-66
2022/09/29 00:53:31;;;;;;;8.10;1.02;;;;;;;;;;5033724;28;20091;-66
2022/09/29 00:56:01;;;;;;;14.30;1.17;;;;;;;;;;5033309;28;20057;-65
2022/09/29 00:58:36;;;;;;;10.13;1.20;;;;;;;;;;5033508;28;20535;-65
2022/09/29 01:01:03;;;;;;;9.23;1.27;;;;;;;;;;5033428;28;20037;-65
2022/09/29 01:03:32;;;;;;;11.10;1.73;;;;;;;;;;5033554;28;20128;-65
2022/09/29 01:06:00;;;;;;;11.90;2.35;;;;;;;;;;5033469;28;20033;-65
2022/09/29 01:08:30;;;;;;;8.90;1.25;;;;;;;;;;5032878;28;20076;-65
2022/09/29 01:10:57;;;;;;;7.90;0.98;;;;;;;;;;5032992;28;20037;-65
2022/09/29 01:13:23;;;;;;;7.72;1.10;;;;;;;;;;5032774;28;20420;-65
2022/09/29 01:15:49;;;;;;;9.38;1.23;;;;;;;;;;5031969;28;20029;-65
2022/09/29 01:18:15;;;;;;;13.40;1.70;;;;;;;;;;5032628;28;20427;-65
2022/09/29 01:21:00;;;;;;;12.60;1.30;;;;;;;;;;5033138;28;20459;-65
2022/09/29 01:23:32;;;;;;;5.30;1.20;;;;;;;;;;5032488;28;20037;-65
2022/09/29 01:25:58;;;;;;;7.85;1.30;;;;;;;;;;5032690;28;20045;-65
2022/09/29 01:28:43;;;;;;;6.85;1.33;;;;;;;;;;5032423;28;20040;-65
2022/09/29 01:31:28;;;;;;;9.02;0.90;;;;;;;;;;5031637;28;20091;-65
2022/09/29 01:34:05;;;;;;;4.75;0.70;;;;;;;;;;5032748;28;20124;-65
2022/09/29 01:36:34;;;;;;;3.78;1.27;;;;;;;;;;5032521;28;20039;-65
2022/09/29 01:39:19;;;;;;;6.00;0.70;;;;;;;;;;5031895;28;20056;-65
2022/09/29 01:41:50;;;;;;;7.57;0.70;;;;;;;;;;5019200;28;20030;-65
2022/09/29 01:44:23;;;;;;;4.07;0.70;;;;;;;;;;5032180;28;20025;-65
2022/09/29 01:46:55;;;;;;;4.47;0.90;;;;;;;;;;5032547;28;20033;-65
2022/09/29 01:49:22;;;;;;;1.08;0.60;;;;;;;;;;5031543;28;20033;-65
2022/09/29 01:51:58;;;;;;;7.78;1.17;;;;;;;;;;5032029;28;20036;-65
2022/09/29 01:54:32;;;;;;;3.28;0.73;;;;;;;;;;5031859;28;20061;-65
2022/09/29 01:57:06;;;;;;;8.52;1.10;;;;;;;;;;5032411;28;20370;-65
2022/09/29 01:59:46;;;;;;;12.13;1.50;;;;;;;;;;5031607;28;20448;-65
2022/09/29 02:02:17;;;;;;;6.32;1.33;;;;;;;;;;5031989;28;20033;-65
2022/09/29 02:04:50;;;;;;;6.72;1.33;;;;;;;;;;5032261;28;20037;-65
2022/09/29 02:07:24;;;;;;;15.10;1.20;;;;;;;;;;5031028;28;20071;-65
2022/09/29 02:09:54;;;;;;;8.55;0.90;;;;;;;;;;5031966;28;20091;-65
2022/09/29 02:12:23;;;;;;;2.42;0.80;;;;;;;;;;5031508;28;20032;-65
2022/09/29 02:14:50;;;;;;;2.40;0.93;;;;;;;;;;5031861;28;20061;-65
2022/09/29 02:17:19;;;;;;;4.22;0.82;;;;;;;;;;5031944;28;20112;-65
2022/09/29 02:19:47;;;;;;;3.38;1.33;;;;;;;;;;5031816;28;20409;-65
2022/09/29 02:22:14;;;;;;;3.22;0.95;;;;;;;;;;5031403;28;20056;-65
2022/09/29 02:24:40;;;;;;;4.78;1.00;;;;;;;;;;5031877;28;20037;-65
2022/09/29 02:27:06;;;;;;;3.75;0.90;;;;;;;;;;5032020;28;20067;-65
2022/09/29 02:29:36;;;;;;;3.08;0.65;;;;;;;;;;5031490;28;20120;-65
2022/09/29 02:32:02;;;;;;;4.13;0.88;;;;;;;;;;5032072;28;20132;-65
2022/09/29 02:34:30;;;;;;;3.88;0.90;;;;;;;;;;5031460;28;20030;-65
2022/09/29 02:37:08;;;;;;;4.95;0.90;;;;;;;;;;5031554;28;20061;-65
2022/09/29 02:39:34;;;;;;;4.07;0.82;;;;;;;;;;5031669;28;20033;-65
2022/09/29 02:42:04;;;;;;;2.88;0.82;;;;;;;;;;5033367;28;20033;-66
2022/09/29 02:44:33;;;;;;;1.25;0.90;;;;;;;;;;5035313;28;20076;-65
2022/09/29 02:46:59;;;;;;;6.10;0.90;;;;;;;;;;5035762;28;20021;-65
2022/09/29 02:49:45;;;;;;;2.60;0.82;;;;;;;;;;5035479;28;20120;-65
2022/09/29 02:52:25;;;;;;;4.03;0.82;;;;;;;;;;5035143;28;20420;-65
2022/09/29 02:54:59;;;;;;;6.50;0.90;;;;;;;;;;5035695;28;20029;-65
2022/09/29 02:57:34;;;;;;;5.90;1.27;;;;;;;;;;5035482;28;20495;-65
2022/09/29 03:00:05;;;;;;;5.78;1.00;;;;;;;;;;5035090;28;20049;-65
2022/09/29 03:02:31;;;;;;;1.77;0.80;;;;;;;;;;5035292;28;20055;-65
2022/09/29 03:04:57;;;;;;;2.72;0.80;;;;;;;;;;5035443;28;20025;-65
2022/09/29 03:07:23;;;;;;;2.20;0.90;;;;;;;;;;5034651;28;20551;-65
2022/09/29 03:09:50;;;;;;;5.68;0.80;;;;;;;;;;5019234;28;20080;-65
2022/09/29 03:12:17;;;;;;;8.88;1.40;;;;;;;;;;5034924;28;20075;-65
2022/09/29 03:14:43;;;;;;;4.07;0.80;;;;;;;;;;5027094;28;20466;-65
2022/09/29 03:17:09;;;;;;;2.60;1.10;;;;;;;;;;5030271;28;20160;-65
2022/09/29 03:19:35;;;;;;;3.72;0.80;;;;;;;;;;5034766;28;20048;-65
2022/09/29 03:22:02;;;;;;;8.85;0.98;;;;;;;;;;5034950;28;20029;-65
2022/09/29 03:24:28;;;;;;;4.63;0.93;;;;;;;;;;5035033;28;20083;-65
2022/09/29 03:26:55;;;;;;;10.00;1.23;;;;;;;;;;5035057;28;20025;-65
2022/09/29 03:29:21;;;;;;;1.92;0.90;;;;;;;;;;5035132;28;20068;-65
2022/09/29 03:31:47;;;;;;;1.20;0.63;;;;;;;;;;5034530;28;20028;-65
2022/09/29 03:34:13;;;;;;;3.28;0.80;;;;;;;;;;5034975;28;20033;-65
2022/09/29 03:36:40;;;;;;;1.77;0.60;;;;;;;;;;5034124;28;20017;-65
2022/09/29 03:39:06;;;;;;;1.38;0.73;;;;;;;;;;5034793;28;20028;-65
2022/09/29 03:41:32;;;;;;;3.30;0.90;;;;;;;;;;5034427;28;20393;-65
2022/09/29 03:43:59;;;;;;;7.97;0.90;;;;;;;;;;5034829;28;20020;-65
2022/09/29 03:46:25;;;;;;;5.25;0.75;;;;;;;;;;5034626;28;20035;-65
2022/09/29 03:48:51;;;;;;;3.72;1.00;;;;;;;;;;5034117;28;20033;-65
2022/09/29 03:51:17;;;;;;;5.78;1.13;;;;;;;;;;5034376;28;20037;-65
2022/09/29 03:53:43;;;;;;;6.93;1.10;;;;;;;;;;5033249;28;20493;-65
2022/09/29 03:56:10;;;;;;;4.07;0.88;;;;;;;;;;5034559;28;20053;-65
2022/09/29 03:58:36;;;;;;;3.33;0.70;;;;;;;;;;5034203;28;20047;-65
2022/09/29 04:01:02;;;;;;;3.05;0.98;;;;;;;;;;5029661;28;20112;-65
2022/09/29 04:03:28;;;;;;;6.13;1.02;;;;;;;;;;5031687;28;20485;-65
2022/09/29 04:05:54;;;;;;;6.30;0.88;;;;;;;;;;5033709;28;20049;-65
2022/09/29 04:08:20;;;;;;;4.28;1.02;;;;;;;;;;5034062;28;20517;-65
2022/09/29 04:10:47;;;;;;;1.92;0.57;;;;;;;;;;5032807;28;20033;-65
2022/09/29 04:13:13;;;;;;;2.85;0.60;;;;;;;;;;5033616;28;20511;-65
2022/09/29 04:15:39;;;;;;;3.78;0.90;;;;;;;;;;5033480;28;20056;-65
2022/09/29 04:18:05;;;;;;;0.73;0.55;;;;;;;;;;5033807;28;20045;-65
2022/09/29 04:20:32;;;;;;;3.88;1.00;;;;;;;;;;5032603;28;20091;-65
2022/09/29 04:22:58;;;;;;;3.38;0.70;;;;;;;;;;5033547;28;20496;-65
2022/09/29 04:25:24;;;;;;;2.67;0.90;;;;;;;;;;5034011;28;20022;-65
2022/09/29 04:27:50;;;;;;;4.38;0.80;;;;;;;;;;5033518;28;20140;-65
2022/09/29 04:30:17;;;;;;;7.03;1.05;;;;;;;;;;5032137;28;20177;-65
2022/09/29 04:32:43;;;;;;;3.92;0.70;;;;;;;;;;5032281;28;20028;-65
2022/09/29 04:35:09;;;;;;;2.30;0.52;;;;;;;;;;5032405;28;20021;-65
2022/09/29 04:37:35;;;;;;;2.53;0.70;;;;;;;;;;5027239;28;20030;-65
2022/09/29 04:40:02;;;;;;;8.45;0.90;;;;;;;;;;5025942;28;20493;-65
2022/09/29 04:42:28;;;;;;;4.35;0.98;;;;;;;;;;5028438;28;20029;-65
2022/09/29 04:44:54;;;;;;;3.90;0.70;;;;;;;;;;5020786;28;20025;-65
2022/09/29 04:47:20;;;;;;;4.60;1.33;;;;;;;;;;5026842;28;20029;-65
2022/09/29 04:49:46;;;;;;;7.82;0.90;;;;;;;;;;5013595;28;20037;-65
2022/09/29 04:52:13;;;;;;;12.38;1.88;;;;;;;;;;5019997;28;20021;-65
2022/09/29 04:54:39;;;;;;;3.30;1.00;;;;;;;;;;5020846;28;20034;-65
2022/09/29 04:57:06;;;;;;;4.10;0.95;;;;;;;;;;5031118;28;20027;-65
2022/09/29 04:59:32;;;;;;;4.75;0.80;;;;;;;;;;5031659;28;20041;-65
2022/09/29 05:01:58;;;;;;;8.73;1.33;;;;;;;;;;5030828;28;20121;-65
2022/09/29 05:04:24;;;;;;;7.68;1.05;;;;;;;;;;5035203;28;20032;-65
2022/09/29 05:06:50;;;;;;;8.80;1.35;;;;;;;;;;5031830;28;20393;-65
2022/09/29 05:09:17;;;;;;;3.80;1.13;;;;;;;;;;5028094;28;20049;-65
2022/09/29 05:11:43;;;;;;;4.60;0.90;;;;;;;;;;5031729;28;20056;-65
2022/09/29 05:14:09;;;;;;;2.28;0.80;;;;;;;;;;5031186;28;20030;-65
2022/09/29 05:16:36;;;;;;;5.45;0.82;;;;;;;;;;5032400;28;20036;-65
2022/09/29 05:19:02;;;;;;;4.57;0.80;;;;;;;;;;5031898;28;20120;-65
2022/09/29 05:21:28;;;;;;;7.93;1.00;;;;;;;;;;5035800;28;20026;-65
2022/09/29 05:23:54;;;;;;;5.25;0.80;;;;;;;;;;5032018;28;20091;-65
2022/09/29 05:26:20;;;;;;;4.05;0.80;;;;;;;;;;5032230;28;20022;-65
2022/09/29 05:28:47;;;;;;;3.85;1.25;;;;;;;;;;5031834;28;20029;-65
2022/09/29 05:31:13;;;;;;;5.75;1.02;;;;;;;;;;5031513;28;20086;-65
2022/09/29 05:33:39;;;;;;;10.02;1.58;;;;;;;;;;5032529;28;20029;-65
2022/09/29 05:36:09;;;;;;;11.38;1.00;;;;;;;;;;5031631;28;20060;-65
2022/09/29 05:38:36;;;;;;;6.13;0.95;;;;;;;;;;5032126;28;20040;-65
2022/09/29 05:41:06;;;;;;;6.97;0.88;;;;;;;;;;5030182;28;20429;-68
2022/09/29 05:43:32;;;;;;;3.47;1.02;;;;;;;;;;5031937;28;20163;-71
2022/09/29 05:46:02;;;;;;;4.97;1.45;;;;;;;;;;5029117;28;20457;-64
2022/09/29 05:48:29;;;;;;;6.15;1.05;;;;;;;;;;5027432;28;20052;-64
2022/09/29 05:50:56;;;;;;;5.45;1.17;;;;;;;;;;5031792;28;20021;-64
2022/09/29 05:53:22;;;;;;;3.95;1.02;;;;;;;;;;5032146;28;20038;-64
2022/09/29 05:55:48;;;;;;;2.40;0.80;;;;;;;;;;5032230;28;20022;-64
2022/09/29 05:58:14;;;;;;;3.55;1.40;;;;;;;;;;5027455;28;20049;-64
2022/09/29 06:00:40;;;;;;;3.80;1.30;;;;;;;;;;5029662;28;20044;-64
2022/09/29 06:03:06;;;;;;;7.43;1.50;;;;;;;;;;5026919;28;20318;-64
2022/09/29 06:05:34;;;;;;;2.65;1.27;;;;;;;;;;5028986;28;20500;-64
2022/09/29 06:08:02;;;;;;;2.25;1.13;;;;;;;;;;5032140;28;20485;-64
2022/09/29 06:10:28;;;;;;;7.32;0.95;;;;;;;;;;5016760;28;20377;-64
2022/09/29 06:12:55;;;;;;;8.30;1.30;;;;;;;;;;5024425;28;20033;-64
2022/09/29 06:15:22;;;;;;;5.78;1.10;;;;;;;;;;5031255;28;20029;-64
2022/09/29 06:17:54;;;;;;;6.50;1.13;;;;;;;;;;5031601;28;20053;-64
2022/09/29 06:20:20;;;;;;;6.60;1.08;;;;;;;;;;5026407;28;20489;-64
2022/09/29 06:22:47;;;;;;;5.60;1.17;;;;;;;;;;5027979;28;20132;-64
2022/09/29 06:25:13;;;;;;;2.85;0.80;;;;;;;;;;5027418;28;20362;-64
2022/09/29 06:27:40;;;;;;;6.18;1.10;;;;;;;;;;5031184;28;20032;-64
2022/09/29 06:30:06;;;;;;;9.70;1.30;;;;;;;;;;5030315;28;20052;-64
2022/09/29 06:32:33;;;;;;;6.03;1.00;;;;;;;;;;5029949;28;20128;-64
2022/09/29 06:37:45;;;;;;;4.20;1.10;;;;;;;;;;5024693;28;20378;-64
2022/09/29 06:40:12;;;;;;;6.50;1.20;;;;;;;;;;5029765;28;20069;-64
2022/09/29 06:42:38;;;;;;;9.10;1.58;;;;;;;;;;5029186;28;20087;-64
2022/09/29 06:45:05;;;;;;;3.92;1.08;;;;;;;;;;5028690;28;20057;-64
2022/09/29 06:47:31;;;;;;;8.52;1.30;;;;;;;;;;5029036;28;20021;-64
2022/09/29 06:50:00;;;;;;;5.82;1.20;;;;;;;;;;5030448;28;20021;-64
2022/09/29 06:52:27;;;;;;;3.08;0.93;;;;;;;;;;5030204;28;20029;-64
2022/09/29 06:54:53;;;;;;;8.15;1.20;;;;;;;;;;5029641;28;20025;-64
2022/09/29 06:57:19;;;;;;;3.22;0.80;;;;;;;;;;5028884;28;20034;-64
2022/09/29 06:59:45;;;;;;;12.15;1.63;;;;;;;;;;5030195;28;20367;-64
2022/09/29 07:02:11;;;;;;;4.45;1.23;;;;;;;;;;5029918;28;20026;-64
2022/09/29 07:04:37;;;;;;;4.90;1.00;;;;;;;;;;5024390;28;20029;-64
2022/09/29 07:07:03;;;;;;;3.60;1.15;;;;;;;;;;5029930;28;20148;-64
2022/09/29 07:09:29;;;;;;;3.15;0.80;;;;;;;;;;5029769;28;20128;-64
2022/09/29 07:11:56;;;;;;;3.00;0.93;;;;;;;;;;5029557;28;20159;-64
2022/09/29 07:14:24;;;;;;;5.80;0.90;;;;;;;;;;5029796;28;20461;-64
2022/09/29 07:16:50;;;;;;;2.42;0.75;;;;;;;;;;5029743;28;20048;-64
2022/09/29 07:19:18;;;;;;;9.25;1.20;;;;;;;;;;5030271;28;20021;-64
2022/09/29 07:21:44;;;;;;;9.07;1.10;;;;;;;;;;5029561;28;20108;-64
2022/09/29 07:24:10;;;;;;;3.70;0.68;;;;;;;;;;5029296;28;20100;-64
2022/09/29 07:26:36;;;;;;;3.13;0.90;;;;;;;;;;5029374;28;20029;-64
2022/09/29 07:29:03;;;;;;;8.77;1.10;;;;;;;;;;5030793;28;20492;-64
2022/09/29 07:31:29;;;;;;;7.97;1.10;;;;;;;;;;5033099;28;20026;-64
2022/09/29 07:33:55;;;;;;;7.57;1.25;;;;;;;;;;5033992;28;20547;-64
2022/09/29 07:36:22;;;;;;;5.60;0.93;;;;;;;;;;5033074;28;20272;-64
2022/09/29 07:38:49;;;;;;;4.47;1.45;;;;;;;;;;5033302;28;20022;-64
2022/09/29 07:41:15;;;;;;;7.35;1.27;;;;;;;;;;5033141;28;20041;-64
2022/09/29 07:43:42;;;;;;;8.20;1.33;;;;;;;;;;5033480;28;20053;-64
2022/09/29 07:46:08;;;;;;;11.40;1.70;;;;;;;;;;5033434;28;20021;-64
2022/09/29 07:48:35;;;;;;;4.15;1.15;;;;;;;;;;5033263;28;20025;-64
2022/09/29 07:51:01;;;;;;;10.35;1.23;;;;;;;;;;5032852;28;20493;-64
2022/09/29 07:53:28;;;;;;;7.15;0.98;;;;;;;;;;5033199;28;20420;-64
2022/09/29 07:55:54;;;;;;;9.57;1.27;;;;;;;;;;5032019;28;20026;-64
2022/09/29 07:58:20;;;;;;;11.02;1.60;;;;;;;;;;5033281;28;20367;-64
2022/09/29 08:00:52;;;;;;;10.60;1.30;;;;;;;;;;5033149;28;20034;-64
2022/09/29 08:03:18;;;;;;;2.85;1.00;;;;;;;;;;5032565;28;20496;-64
2022/09/29 08:05:44;;;;;;;7.43;1.25;;;;;;;;;;5025926;28;20037;-64
2022/09/29 08:08:10;;;;;;;4.50;1.13;;;;;;;;;;5032647;28;20417;-64
2022/09/29 08:10:36;;;;;;;12.30;1.38;;;;;;;;;;5032229;28;20082;-64
2022/09/29 08:13:02;;;;;;;9.45;1.25;;;;;;;;;;5030898;28;20459;-64
2022/09/29 08:15:28;;;;;;;7.35;1.48;;;;;;;;;;5033046;28;20018;-64
2022/09/29 08:17:55;;;;;;;9.15;1.75;;;;;;;;;;5032638;28;20379;-64
2022/09/29 08:20:22;;;;;;;7.13;1.33;;;;;;;;;;5032964;28;20755;-64
2022/09/29 08:22:48;;;;;;;6.45;1.23;;;;;;;;;;5032198;28;20033;-64
2022/09/29 08:25:17;;;;;;;6.97;1.30;;;;;;;;;;5032269;28;20033;-64
2022/09/29 08:27:44;;;;;;;4.57;1.52;;;;;;;;;;5032832;28;20485;-64
2022/09/29 08:30:11;;;;;;;12.15;1.60;;;;;;;;;;5032771;28;20101;-64
2022/09/29 08:32:37;;;;;;;6.22;1.20;;;;;;;;;;5030815;28;21102;-64
2022/09/29 08:35:04;;;;;;;8.45;1.73;;;;;;;;;;5031696;28;20033;-64
2022/09/29 08:37:30;;;;;;;3.00;1.23;;;;;;;;;;5038198;28;20116;-64
2022/09/29 08:39:56;;;;;;;11.10;1.75;;;;;;;;;;5030132;28;20052;-64
2022/09/29 08:42:37;;;;;;;11.68;2.08;;;;;;;;;;5031508;28;20027;-64
2022/09/29 08:45:06;;;;;;;7.85;2.15;;;;;;;;;;5026856;28;20029;-64
2022/09/29 08:47:37;;;;;;;8.98;3.78;;;;;;;;;;5032285;28;20021;-64
2022/09/29 08:50:06;;;;;;;7.80;1.80;;;;;;;;;;5031541;28;20037;-64
2022/09/29 08:52:38;;;;;;;11.45;1.90;;;;;;;;;;5031477;28;20029;-64
2022/09/29 08:55:16;;;;;;;12.00;1.87;;;;;;;;;;5031245;28;20017;-64
2022/09/29 08:57:43;;;;;;;10.88;1.92;;;;;;;;;;5031765;28;20304;-64
2022/09/29 09:00:11;;;;;;;12.07;1.98;;;;;;;;;;5031948;28;20091;-64
2022/09/29 09:02:43;;;;;;;9.55;1.80;;;;;;;;;;5030960;28;20393;-64
2022/09/29 09:05:13;;;;;;;9.23;1.60;;;;;;;;;;5030992;28;20025;-64
2022/09/29 09:07:53;;;;;;;9.50;1.83;;;;;;;;;;5031416;28;20033;-64
2022/09/29 09:10:19;;;;;;;8.27;2.10;;;;;;;;;;5026735;28;20043;-64
2022/09/29 09:12:55;;;;;;;10.73;2.90;;;;;;;;;;5031415;28;20043;-64
2022/09/29 09:15:28;;;;;;;11.10;2.22;;;;;;;;;;5031446;28;20431;-64
2022/09/29 09:18:13;;;;;;;12.30;2.17;;;;;;;;;;5030620;28;20112;-64
2022/09/29 09:20:43;;;;;;;10.75;2.60;;;;;;;;;;5030095;28;20161;-63
2022/09/29 09:23:13;;;;;;;18.65;2.40;;;;;;;;;;5031369;28;20021;-63
2022/09/29 09:25:42;;;;;;;14.77;3.42;;;;;;;;;;5031006;28;20061;-63
2022/09/29 09:28:14;;;;;;;16.08;2.22;;;;;;;;;;5031011;28;20493;-63
2022/09/29 09:30:46;;;;;;;14.07;2.10;;;;;;;;;;5030978;28;20033;-63
2022/09/29 09:33:22;;;;;;;15.70;2.35;;;;;;;;;;5030755;28;20367;-63
2022/09/29 09:35:51;;;;;;;12.30;2.13;;;;;;;;;;5031092;28;20034;-63
2022/09/29 09:38:20;;;;;;;13.93;2.03;;;;;;;;;;5030364;28;20044;-63
2022/09/29 09:40:48;;;;;;;15.05;2.75;;;;;;;;;;5031173;28;20037;-63
2022/09/29 09:43:19;;;;;;;20.50;2.95;;;;;;;;;;5031377;28;20064;-63
2022/09/29 09:45:57;;;;;;;9.48;2.25;;;;;;;;;;5030166;28;20033;-63
2022/09/29 09:48:37;;;;;;;24.67;2.65;;;;;;;;;;5031383;28;20053;-63
2022/09/29 09:51:20;;;;;;;8.13;2.20;;;;;;;;;;5029740;28;20059;-63
2022/09/29 09:53:47;;;;;;;13.50;2.28;;;;;;;;;;5030194;28;20030;-63
2022/09/29 09:56:23;;;;;;;12.18;2.45;;;;;;;;;;5030790;28;20478;-63
2022/09/29 09:59:08;;;;;;;16.13;2.58;;;;;;;;;;5029288;28;20408;-63
2022/09/29 10:01:34;;;;;;;12.85;3.15;;;;;;;;;;5025699;28;20137;-63
2022/09/29 10:04:01;;;;;;;19.75;2.78;;;;;;;;;;5030853;28;20025;-63
2022/09/29 10:06:27;;;;;;;16.10;2.67;;;;;;;;;;5029761;28;20021;-63
2022/09/29 10:08:53;;;;;;;11.88;2.35;;;;;;;;;;5030460;28;20049;-63
2022/09/29 10:11:27;;;;;;;13.82;2.75;;;;;;;;;;5030631;28;20084;-63
2022/09/29 10:13:57;;;;;;;14.93;3.50;;;;;;;;;;5030946;28;20049;-63
2022/09/29 10:16:27;;;;;;;17.90;2.90;;;;;;;;;;5030400;28;20021;-64
2022/09/29 10:18:54;;;;;;;11.05;2.30;;;;;;;;;;5031391;28;20071;-63
2022/09/29 10:21:34;;;;;;;14.52;2.83;;;;;;;;;;5026875;28;20498;-63
2022/09/29 10:24:01;;;;;;;17.27;3.03;;;;;;;;;;5030111;28;20052;-63
2022/09/29 10:26:31;;;;;;;12.55;2.88;;;;;;;;;;5034613;28;20431;-63
2022/09/29 10:29:00;;;;;;;13.65;3.22;;;;;;;;;;5030678;28;20033;-63
2022/09/29 10:31:28;;;;;;;23.73;3.30;;;;;;;;;;5026826;28;20036;-63
2022/09/29 10:33:56;;;;;;;25.63;4.00;;;;;;;;;;5033943;28;20035;-63
2022/09/29 10:36:23;;;;;;;24.88;3.33;;;;;;;;;;5029000;28;20017;-63
2022/09/29 10:38:50;;;;;;;13.57;5.32;;;;;;;;;;5031979;28;20424;-63
2022/09/29 10:41:18;;;;;;;25.40;3.60;;;;;;;;;;5029098;28;20050;-63
2022/09/29 10:43:45;;;;;;;26.85;4.07;;;;;;;;;;5031883;28;20033;-63
2022/09/29 10:46:30;;;;;;;25.05;4.25;;;;;;;;;;5032841;28;20444;-63
2022/09/29 10:49:12;;;;;;;19.95;3.50;;;;;;;;;;5027767;28;20527;-63
2022/09/29 10:51:38;;;;;;;18.77;3.38;;;;;;;;;;5027866;28;20030;-63
2022/09/29 10:54:08;;;;;;;13.38;2.60;;;;;;;;;;5041438;28;20033;-63
2022/09/29 10:56:35;;;;;;;14.90;2.83;;;;;;;;;;5027755;28;20025;-64
2022/09/29 10:59:02;;;;;;;8.75;1.92;;;;;;;;;;5027184;28;20104;-63
2022/09/29 11:01:30;;;;;;;10.65;1.80;;;;;;;;;;5029135;28;20033;-63
2022/09/29 11:04:02;;;;;;;9.05;1.80;;;;;;;;;;5033047;28;20017;-63
2022/09/29 11:06:35;;;;;;;6.68;1.48;;;;;;;;;;5032206;28;20034;-64
2022/09/29 11:09:16;;;;;;;5.88;1.48;;;;;;;;;;5037467;28;20040;-63
2022/09/29 11:11:46;;;;;;;8.93;1.27;;;;;;;;;;5040633;28;20033;-63
2022/09/29 11:14:24;;;;;;;5.93;1.50;;;;;;;;;;5034470;28;20105;-63
2022/09/29 11:17:14;;;;;;;7.65;1.40;;;;;;;;;;5044718;28;20700;-63
2022/09/29 11:19:40;;;;;;;8.93;1.60;;;;;;;;;;5027345;28;20048;-63
2022/09/29 11:22:15;;;;;;;8.88;1.30;;;;;;;;;;5042143;28;20523;-63
2022/09/29 11:24:41;;;;;;;9.32;2.25;;;;;;;;;;5038411;28;20029;-63
2022/09/29 11:27:08;;;;;;;11.48;1.45;;;;;;;;;;5029955;28;20048;-64
2022/09/29 11:29:39;;;;;;;6.15;1.30;;;;;;;;;;5030067;28;20030;-64
2022/09/29 11:32:12;;;;;;;7.47;1.17;;;;;;;;;;5032196;28;20038;-64
2022/09/29 11:34:56;;;;;;;7.75;2.08;;;;;;;;;;5036421;28;20037;-64
2022/09/29 11:37:41;;;;;;;9.10;1.40;;;;;;;;;;5033104;28;20045;-64
2022/09/29 11:40:27;;;;;;;3.28;1.00;;;;;;;;;;5035522;28;20032;-64
2022/09/29 11:42:55;;;;;;;8.63;1.77;;;;;;;;;;5033067;28;20037;-64
2022/09/29 11:45:29;;;;;;;7.82;1.38;;;;;;;;;;5033430;28;20033;-64
2022/09/29 11:47:55;;;;;;;8.70;1.65;;;;;;;;;;5033515;28;20029;-64
2022/09/29 11:50:24;;;;;;;6.28;1.42;;;;;;;;;;5035644;28;20033;-64
2022/09/29 11:53:09;;;;;;;5.82;1.95;;;;;;;;;;5043848;28;20036;-64
2022/09/29 11:55:41;;;;;;;12.95;1.83;;;;;;;;;;5025190;28;20037;-64
2022/09/29 11:58:07;;;;;;;5.22;1.50;;;;;;;;;;5036240;28;20029;-64
2022/09/29 12:00:46;;;;;;;5.15;1.27;;;;;;;;;;5035300;28;20401;-64
2022/09/29 12:03:22;;;;;;;7.22;1.15;;;;;;;;;;5030003;28;20022;-64
2022/09/29 12:06:01;;;;;;;4.72;1.25;;;;;;;;;;5039234;28;20044;-64
2022/09/29 12:08:36;;;;;;;9.85;1.70;;;;;;;;;;5038040;28;20045;-64
2022/09/29 12:11:25;;;;;;;5.95;1.00;;;;;;;;;;5034486;28;20079;-64
2022/09/29 12:14:06;;;;;;;6.57;1.33;;;;;;;;;;5033788;28;20048;-64
2022/09/29 12:16:34;;;;;;;5.22;0.95;;;;;;;;;;5031588;28;20055;-64
2022/09/29 12:19:07;;;;;;;5.47;1.17;;;;;;;;;;5038326;28;20029;-64
2022/09/29 12:21:33;;;;;;;;;;;;;;;;;;5038710;28;20026;-64
2022/09/29 12:24:00;;;;;;;7.60;1.73;;;;;;;;;;5031329;28;20700;-64
2022/09/29 12:26:27;;;;;;;4.50;1.05;;;;;;;;;;5030436;28;20064;-64
2022/09/29 12:28:59;;;;;;;3.53;1.30;;;;;;;;;;5037610;28;20036;-64
2022/09/29 12:31:28;;;;;;;4.90;1.10;;;;;;;;;;5031222;28;20060;-64
2022/09/29 12:34:06;;;;;;;5.03;1.17;;;;;;;;;;5031310;28;20025;-64
2022/09/29 12:36:44;;;;;;;5.70;1.45;;;;;;;;;;5034566;28;20438;-64
2022/09/29 12:39:30;;;;;;;9.48;1.10;;;;;;;;;;5031671;28;20485;-64
2022/09/29 12:42:03;;;;;;;8.25;0.98;;;;;;;;;;5026637;28;20037;-64
2022/09/29 12:44:31;;;;;;;3.25;1.10;;;;;;;;;;5032570;28;20155;-64
2022/09/29 12:46:57;;;;;;;7.60;1.02;;;;;;;;;;5031990;28;20155;-64
2022/09/29 12:49:47;;;;;;;12.30;1.85;;;;;;;;;;5031731;28;20037;-64
2022/09/29 12:52:20;;;;;;;5.10;1.13;;;;;;;;;;5031362;28;20132;-64
2022/09/29 12:54:56;;;;;;;6.97;1.20;;;;;;;;;;5030630;28;20521;-64
2022/09/29 12:57:25;;;;;;;8.68;1.38;;;;;;;;;;5031866;28;20025;-64
2022/09/29 12:59:58;;;;;;;6.25;1.25;;;;;;;;;;5037280;28;20032;-64
2022/09/29 13:02:31;;;;;;;3.58;1.02;;;;;;;;;;5038611;28;20025;-64
2022/09/29 13:05:03;;;;;;;5.20;1.42;;;;;;;;;;5031149;28;20037;-64
2022/09/29 13:07:32;;;;;;;3.55;0.80;;;;;;;;;;5031757;28;20091;-64
2022/09/29 13:10:01;;;;;;;9.07;1.50;;;;;;;;;;5031064;28;20032;-64
2022/09/29 13:12:33;;;;;;;7.85;1.20;;;;;;;;;;5030854;28;20152;-64
2022/09/29 13:15:18;;;;;;;2.00;0.73;;;;;;;;;;5029931;28;20550;-64
2022/09/29 13:17:44;;;;;;;10.00;1.00;;;;;;;;;;5030225;28;20025;-64
2022/09/29 13:20:16;;;;;;;5.45;1.25;;;;;;;;;;5030968;28;20018;-64
2022/09/29 13:22:45;;;;;;;4.50;0.70;;;;;;;;;;5028717;28;20057;-64
2022/09/29 13:25:16;;;;;;;4.43;0.70;;;;;;;;;;5036185;28;20075;-64
2022/09/29 13:27:44;;;;;;;7.78;1.65;;;;;;;;;;5033861;28;20124;-64
2022/09/29 13:30:18;;;;;;;6.90;1.45;;;;;;;;;;5030122;28;20114;-64
2022/09/29 13:32:45;;;;;;;2.58;0.60;;;;;;;;;;5033404;28;20033;-64
2022/09/29 13:35:34;;;;;;;2.05;0.63;;;;;;;;;;5038055;28;20078;-64
2022/09/29 13:38:02;;;;;;;3.38;0.50;;;;;;;;;;5033039;28;20029;-64
2022/09/29 13:40:29;;;;;;;3.42;0.55;;;;;;;;;;5025691;28;20053;-64
2022/09/29 13:42:56;;;;;;;5.45;0.40;;;;;;;;;;5031012;28;20495;-64
2022/09/29 13:45:23;;;;;;;3.05;0.50;;;;;;;;;;5029808;28;20017;-64
2022/09/29 13:47:53;;;;;;;2.72;0.68;;;;;;;;;;5031330;28;20029;-64
2022/09/29 13:50:38;;;;;;;5.70;0.60;;;;;;;;;;5030852;28;20029;-64
2022/09/29 13:53:30;;;;;;;5.22;0.73;;;;;;;;;;5031025;28;20044;-64
2022/09/29 13:56:02;;;;;;;8.13;0.93;;;;;;;;;;5026986;28;20030;-64
2022/09/29 13:58:34;;;;;;;5.88;0.50;;;;;;;;;;5031190;28;20037;-64
2022/09/29 14:01:01;;;;;;;2.45;0.43;;;;;;;;;;5031182;28;20025;-64
2022/09/29 14:03:32;;;;;;;4.32;0.60;;;;;;;;;;5030237;28;20020;-64
2022/09/29 14:06:05;;;;;;;4.28;0.60;;;;;;;;;;5030164;28;20044;-64
2022/09/29 14:08:36;;;;;;;0.90;0.40;;;;;;;;;;5029338;28;20049;-64
2022/09/29 14:11:05;;;;;;;6.68;0.90;;;;;;;;;;5032281;28;20041;-64
2022/09/29 14:13:43;;;;;;;5.15;0.80;;;;;;;;;;5030149;28;20489;-64
2022/09/29 14:16:15;;;;;;;4.32;0.55;;;;;;;;;;5028288;28;20112;-64
2022/09/29 14:18:41;;;;;;;1.03;0.40;;;;;;;;;;5027817;28;20038;-64
2022/09/29 14:21:12;;;;;;;0.95;0.57;;;;;;;;;;5029294;28;20048;-64
2022/09/29 14:23:48;;;;;;;1.50;0.43;;;;;;;;;;5029046;28;20033;-64
2022/09/29 14:26:33;;;;;;;2.67;0.40;;;;;;;;;;5027952;28;20329;-64
2022/09/29 14:29:01;;;;;;;1.70;0.40;;;;;;;;;;5028856;28;20057;-64
2022/09/29 14:31:28;;;;;;;2.25;0.63;;;;;;;;;;5028374;28;20025;-64
2022/09/29 14:33:54;;;;;;;3.83;0.43;;;;;;;;;;5030975;28;20037;-64
2022/09/29 14:36:24;;;;;;;2.80;0.57;;;;;;;;;;5025219;28;20013;-64
2022/09/29 14:38:52;;;;;;;2.67;0.60;;;;;;;;;;5032659;28;20043;-64
2022/09/29 14:41:22;;;;;;;3.03;0.50;;;;;;;;;;5034708;28;20100;-64
2022/09/29 14:43:48;;;;;;;3.15;0.43;;;;;;;;;;5034003;28;20120;-64
2022/09/29 14:52:27;;;;;;;2.10;0.70;;;;;;;;;;5028361;28;20029;-64
2022/09/29 14:55:19;;;;;;;1.80;0.50;;;;;;;;;;5042853;28;20025;-64
2022/09/29 14:57:45;;;;;;;0.47;0.23;;;;;;;;;;5031734;28;20044;-64
2022/09/29 15:00:15;;;;;;;4.75;0.68;;;;;;;;;;5030243;28;20099;-64
2022/09/29 15:02:45;;;;;;;1.42;0.32;;;;;;;;;;5034594;28;20413;-64
2022/09/29 15:05:12;;;;;;;3.03;0.60;;;;;;;;;;5030065;28;20072;-64